sensor_id;sensor_type;location;lat;lon;timestamp;pressure;altitude;pressure_sealevel;temperature;humidity
74334;BME280;62753;40.394;-80.022;2023-11-19T00:00:30;97129.65;;;13.80;26.36
74334;BME280;62753;40.394;-80.022;2023-11-19T00:02:55;97132.87;;;13.03;27.21
74334;BME280;62753;40.394;-80.022;2023-11-19T00:05:21;97127.65;;;12.93;27.43
74334;BME280;62753;40.394;-80.022;2023-11-19T00:07:45;97129.23;;;11.96;28.28
74334;BME280;62753;40.394;-80.022;2023-11-19T00:10:12;97127.41;;;11.66;28.67
74334;BME280;62753;40.394;-80.022;2023-11-19T00:12:37;97128.85;;;12.21;28.73
74334;BME280;62753;40.394;-80.022;2023-11-19T00:15:02;97124.73;;;12.22;28.56
74334;BME280;62753;40.394;-80.022;2023-11-19T00:17:28;97118.43;;;12.82;27.59
74334;BME280;62753;40.394;-80.022;2023-11-19T00:19:53;97122.87;;;11.69;28.93
74334;BME280;62753;40.394;-80.022;2023-11-19T00:22:18;97123.82;;;11.81;28.81
74334;BME280;62753;40.394;-80.022;2023-11-19T00:24:44;97124.47;;;13.27;27.20
74334;BME280;62753;40.394;-80.022;2023-11-19T00:27:10;97129.18;;;11.62;28.82
74334;BME280;62753;40.394;-80.022;2023-11-19T00:29:35;97135.15;;;12.81;28.01
74334;BME280;62753;40.394;-80.022;2023-11-19T00:32:00;97136.73;;;12.72;27.98
74334;BME280;62753;40.394;-80.022;2023-11-19T00:34:25;97138.04;;;12.45;27.77
74334;BME280;62753;40.394;-80.022;2023-11-19T00:36:51;97138.05;;;11.81;29.18
74334;BME280;62753;40.394;-80.022;2023-11-19T00:39:16;97138.60;;;12.84;27.42
74334;BME280;62753;40.394;-80.022;2023-11-19T00:41:42;97130.71;;;12.31;28.23
74334;BME280;62753;40.394;-80.022;2023-11-19T00:44:07;97126.04;;;13.11;27.32
74334;BME280;62753;40.394;-80.022;2023-11-19T00:46:33;97126.82;;;11.68;29.23
74334;BME280;62753;40.394;-80.022;2023-11-19T00:48:58;97127.98;;;11.53;29.21
74334;BME280;62753;40.394;-80.022;2023-11-19T00:51:24;97126.50;;;11.54;29.06
74334;BME280;62753;40.394;-80.022;2023-11-19T00:53:49;97129.70;;;12.20;28.49
74334;BME280;62753;40.394;-80.022;2023-11-19T00:56:15;97132.85;;;11.94;28.33
74334;BME280;62753;40.394;-80.022;2023-11-19T00:58:40;97125.17;;;12.78;27.46
74334;BME280;62753;40.394;-80.022;2023-11-19T01:01:06;97126.54;;;11.72;28.88
74334;BME280;62753;40.394;-80.022;2023-11-19T01:03:31;97123.92;;;13.01;27.15
74334;BME280;62753;40.394;-80.022;2023-11-19T01:05:56;97121.95;;;12.91;27.21
74334;BME280;62753;40.394;-80.022;2023-11-19T01:08:22;97123.27;;;13.13;27.33
74334;BME280;62753;40.394;-80.022;2023-11-19T01:10:47;97123.81;;;12.61;27.51
74334;BME280;62753;40.394;-80.022;2023-11-19T01:13:13;97122.65;;;13.19;27.19
74334;BME280;62753;40.394;-80.022;2023-11-19T01:15:38;97123.45;;;12.80;27.86
74334;BME280;62753;40.394;-80.022;2023-11-19T01:18:04;97121.12;;;12.67;27.83
74334;BME280;62753;40.394;-80.022;2023-11-19T01:20:29;97117.65;;;13.13;27.00
74334;BME280;62753;40.394;-80.022;2023-11-19T01:22:55;97119.03;;;12.62;27.77
74334;BME280;62753;40.394;-80.022;2023-11-19T01:25:20;97117.98;;;12.47;27.98
74334;BME280;62753;40.394;-80.022;2023-11-19T01:27:46;97117.59;;;12.58;28.00
74334;BME280;62753;40.394;-80.022;2023-11-19T01:30:12;97113.40;;;12.40;27.59
74334;BME280;62753;40.394;-80.022;2023-11-19T01:32:36;97119.25;;;12.78;27.98
74334;BME280;62753;40.394;-80.022;2023-11-19T01:35:03;97120.85;;;11.75;28.61
74334;BME280;62753;40.394;-80.022;2023-11-19T01:37:28;97125.58;;;11.57;29.45
74334;BME280;62753;40.394;-80.022;2023-11-19T01:39:54;97126.70;;;11.48;28.86
74334;BME280;62753;40.394;-80.022;2023-11-19T01:42:19;97129.51;;;12.74;27.26
74334;BME280;62753;40.394;-80.022;2023-11-19T01:44:55;97129.65;;;12.29;28.53
74334;BME280;62753;40.394;-80.022;2023-11-19T01:47:10;97126.95;;;11.25;28.91
74334;BME280;62753;40.394;-80.022;2023-11-19T01:49:35;97125.26;;;12.81;27.68
74334;BME280;62753;40.394;-80.022;2023-11-19T01:52:01;97126.50;;;11.61;29.23
74334;BME280;62753;40.394;-80.022;2023-11-19T01:54:26;97129.48;;;10.63;30.50
74334;BME280;62753;40.394;-80.022;2023-11-19T01:56:53;97122.17;;;12.41;28.30
74334;BME280;62753;40.394;-80.022;2023-11-19T01:59:17;97121.72;;;11.80;29.01
74334;BME280;62753;40.394;-80.022;2023-11-19T02:01:42;97122.21;;;11.04;29.88
74334;BME280;62753;40.394;-80.022;2023-11-19T02:04:08;97125.51;;;10.11;30.82
74334;BME280;62753;40.394;-80.022;2023-11-19T02:06:34;97119.56;;;11.75;28.74
74334;BME280;62753;40.394;-80.022;2023-11-19T02:08:59;97121.47;;;11.53;28.87
74334;BME280;62753;40.394;-80.022;2023-11-19T02:11:24;97119.77;;;11.94;28.22
74334;BME280;62753;40.394;-80.022;2023-11-19T02:13:49;97121.69;;;12.02;28.56
74334;BME280;62753;40.394;-80.022;2023-11-19T02:16:16;97127.50;;;10.14;30.56
74334;BME280;62753;40.394;-80.022;2023-11-19T02:18:41;97123.07;;;11.64;28.67
74334;BME280;62753;40.394;-80.022;2023-11-19T02:21:06;97126.24;;;11.78;28.96
74334;BME280;62753;40.394;-80.022;2023-11-19T02:23:32;97131.54;;;10.22;30.57
74334;BME280;62753;40.394;-80.022;2023-11-19T02:26:03;97129.31;;;10.46;29.76
74334;BME280;62753;40.394;-80.022;2023-11-19T02:28:23;97131.10;;;10.82;29.95
74334;BME280;62753;40.394;-80.022;2023-11-19T02:30:49;97135.73;;;10.22;30.16
74334;BME280;62753;40.394;-80.022;2023-11-19T02:33:14;97133.54;;;11.91;28.56
74334;BME280;62753;40.394;-80.022;2023-11-19T02:35:39;97135.75;;;10.59;30.11
74334;BME280;62753;40.394;-80.022;2023-11-19T02:38:05;97132.17;;;11.33;29.25
74334;BME280;62753;40.394;-80.022;2023-11-19T02:40:31;97140.87;;;10.04;30.85
74334;BME280;62753;40.394;-80.022;2023-11-19T02:42:56;97134.58;;;10.22;30.82
74334;BME280;62753;40.394;-80.022;2023-11-19T02:45:22;97132.62;;;11.04;29.77
74334;BME280;62753;40.394;-80.022;2023-11-19T02:47:47;97143.40;;;10.13;31.05
74334;BME280;62753;40.394;-80.022;2023-11-19T02:50:13;97139.21;;;10.26;30.94
74334;BME280;62753;40.394;-80.022;2023-11-19T02:52:38;97133.29;;;11.04;30.00
74334;BME280;62753;40.394;-80.022;2023-11-19T02:55:04;97137.27;;;10.61;30.45
74334;BME280;62753;40.394;-80.022;2023-11-19T02:57:31;97137.25;;;11.03;30.11
74334;BME280;62753;40.394;-80.022;2023-11-19T02:59:54;97141.90;;;10.82;30.31
74334;BME280;62753;40.394;-80.022;2023-11-19T03:02:21;97144.15;;;10.78;30.64
74334;BME280;62753;40.394;-80.022;2023-11-19T03:04:45;97140.52;;;11.27;29.66
74334;BME280;62753;40.394;-80.022;2023-11-19T03:07:10;97144.04;;;11.63;29.33
74334;BME280;62753;40.394;-80.022;2023-11-19T03:09:36;97149.56;;;11.39;29.40
74334;BME280;62753;40.394;-80.022;2023-11-19T03:12:02;97150.21;;;10.79;29.84
74334;BME280;62753;40.394;-80.022;2023-11-19T03:14:27;97153.43;;;11.17;29.86
74334;BME280;62753;40.394;-80.022;2023-11-19T03:16:52;97156.06;;;10.29;30.74
74334;BME280;62753;40.394;-80.022;2023-11-19T03:19:18;97154.40;;;10.07;31.52
74334;BME280;62753;40.394;-80.022;2023-11-19T03:21:43;97153.98;;;9.42;32.44
74334;BME280;62753;40.394;-80.022;2023-11-19T03:24:09;97158.17;;;10.75;30.43
74334;BME280;62753;40.394;-80.022;2023-11-19T03:26:34;97154.17;;;10.93;30.09
74334;BME280;62753;40.394;-80.022;2023-11-19T03:29:00;97156.05;;;10.45;30.51
74334;BME280;62753;40.394;-80.022;2023-11-19T03:31:25;97152.86;;;9.57;31.99
74334;BME280;62753;40.394;-80.022;2023-11-19T03:33:50;97154.24;;;9.96;31.74
74334;BME280;62753;40.394;-80.022;2023-11-19T03:36:16;97160.61;;;8.96;33.68
74334;BME280;62753;40.394;-80.022;2023-11-19T03:38:42;97159.36;;;9.48;32.98
74334;BME280;62753;40.394;-80.022;2023-11-19T03:41:11;97156.53;;;10.32;31.03
74334;BME280;62753;40.394;-80.022;2023-11-19T03:43:33;97158.50;;;10.44;30.52
74334;BME280;62753;40.394;-80.022;2023-11-19T03:45:58;97156.10;;;10.38;31.83
74334;BME280;62753;40.394;-80.022;2023-11-19T03:48:24;97158.51;;;10.64;31.28
74334;BME280;62753;40.394;-80.022;2023-11-19T03:50:50;97159.68;;;10.26;31.33
74334;BME280;62753;40.394;-80.022;2023-11-19T03:53:16;97160.65;;;10.09;31.27
74334;BME280;62753;40.394;-80.022;2023-11-19T03:55:40;97166.02;;;10.68;30.52
74334;BME280;62753;40.394;-80.022;2023-11-19T03:58:06;97167.77;;;10.71;30.69
74334;BME280;62753;40.394;-80.022;2023-11-19T04:00:32;97171.04;;;10.83;30.28
74334;BME280;62753;40.394;-80.022;2023-11-19T04:02:57;97172.86;;;10.64;30.03
74334;BME280;62753;40.394;-80.022;2023-11-19T04:05:23;97172.94;;;10.66;29.80
74334;BME280;62753;40.394;-80.022;2023-11-19T04:07:48;97171.05;;;10.22;30.80
74334;BME280;62753;40.394;-80.022;2023-11-19T04:10:13;97175.50;;;10.48;30.12
74334;BME280;62753;40.394;-80.022;2023-11-19T04:12:39;97175.30;;;10.73;29.78
74334;BME280;62753;40.394;-80.022;2023-11-19T04:15:06;97177.72;;;10.42;30.48
74334;BME280;62753;40.394;-80.022;2023-11-19T04:17:30;97177.30;;;10.83;29.77
74334;BME280;62753;40.394;-80.022;2023-11-19T04:19:55;97175.46;;;10.75;29.68
74334;BME280;62753;40.394;-80.022;2023-11-19T04:22:21;97175.03;;;11.21;29.66
74334;BME280;62753;40.394;-80.022;2023-11-19T04:24:46;97176.64;;;11.13;29.47
74334;BME280;62753;40.394;-80.022;2023-11-19T04:27:13;97174.75;;;9.57;31.48
74334;BME280;62753;40.394;-80.022;2023-11-19T04:29:38;97174.68;;;8.60;32.57
74334;BME280;62753;40.394;-80.022;2023-11-19T04:32:04;97175.11;;;10.79;29.79
74334;BME280;62753;40.394;-80.022;2023-11-19T04:34:29;97173.38;;;10.96;30.33
74334;BME280;62753;40.394;-80.022;2023-11-19T04:36:54;97176.69;;;10.52;30.11
74334;BME280;62753;40.394;-80.022;2023-11-19T04:39:20;97175.95;;;8.18;33.36
74334;BME280;62753;40.394;-80.022;2023-11-19T04:41:47;97180.35;;;10.58;30.49
74334;BME280;62753;40.394;-80.022;2023-11-19T04:44:11;97179.32;;;10.29;30.83
74334;BME280;62753;40.394;-80.022;2023-11-19T04:46:36;97180.64;;;10.97;30.33
74334;BME280;62753;40.394;-80.022;2023-11-19T04:49:02;97186.42;;;10.48;30.78
74334;BME280;62753;40.394;-80.022;2023-11-19T04:51:28;97186.02;;;10.51;30.41
74334;BME280;62753;40.394;-80.022;2023-11-19T04:53:53;97184.12;;;10.39;30.23
74334;BME280;62753;40.394;-80.022;2023-11-19T04:56:18;97180.36;;;11.88;29.53
74334;BME280;62753;40.394;-80.022;2023-11-19T04:58:44;97188.57;;;10.55;29.81
74334;BME280;62753;40.394;-80.022;2023-11-19T05:01:14;97190.93;;;10.49;30.14
74334;BME280;62753;40.394;-80.022;2023-11-19T05:03:35;97184.26;;;10.93;29.43
74334;BME280;62753;40.394;-80.022;2023-11-19T05:06:01;97186.05;;;11.65;28.90
74334;BME280;62753;40.394;-80.022;2023-11-19T05:08:26;97189.07;;;11.03;29.38
74334;BME280;62753;40.394;-80.022;2023-11-19T05:10:51;97188.15;;;11.20;29.34
74334;BME280;62753;40.394;-80.022;2023-11-19T05:13:17;97192.88;;;10.74;29.87
74334;BME280;62753;40.394;-80.022;2023-11-19T05:15:42;97188.33;;;10.35;30.30
74334;BME280;62753;40.394;-80.022;2023-11-19T05:18:07;97187.09;;;10.35;30.67
74334;BME280;62753;40.394;-80.022;2023-11-19T05:20:33;97189.09;;;10.82;29.98
74334;BME280;62753;40.394;-80.022;2023-11-19T05:22:59;97185.76;;;11.09;29.49
74334;BME280;62753;40.394;-80.022;2023-11-19T05:25:24;97187.96;;;10.95;29.61
74334;BME280;62753;40.394;-80.022;2023-11-19T05:27:50;97188.81;;;10.73;29.86
74334;BME280;62753;40.394;-80.022;2023-11-19T05:30:15;97188.61;;;10.48;30.20
74334;BME280;62753;40.394;-80.022;2023-11-19T05:32:41;97182.67;;;9.73;31.14
74334;BME280;62753;40.394;-80.022;2023-11-19T05:35:07;97188.65;;;10.55;30.54
74334;BME280;62753;40.394;-80.022;2023-11-19T05:37:32;97187.76;;;10.44;30.12
74334;BME280;62753;40.394;-80.022;2023-11-19T05:39:57;97186.95;;;11.07;29.67
74334;BME280;62753;40.394;-80.022;2023-11-19T05:42:23;97182.73;;;9.70;31.58
74334;BME280;62753;40.394;-80.022;2023-11-19T05:44:48;97181.64;;;9.90;31.21
74334;BME280;62753;40.394;-80.022;2023-11-19T05:47:14;97178.57;;;11.04;30.20
74334;BME280;62753;40.394;-80.022;2023-11-19T05:49:39;97169.52;;;9.84;31.07
74334;BME280;62753;40.394;-80.022;2023-11-19T05:52:05;97170.84;;;10.07;30.91
74334;BME280;62753;40.394;-80.022;2023-11-19T05:54:30;97168.21;;;9.44;31.80
74334;BME280;62753;40.394;-80.022;2023-11-19T05:56:56;97166.00;;;9.56;31.24
74334;BME280;62753;40.394;-80.022;2023-11-19T05:59:21;97163.22;;;9.67;30.94
74334;BME280;62753;40.394;-80.022;2023-11-19T06:01:48;97164.97;;;10.68;30.14
74334;BME280;62753;40.394;-80.022;2023-11-19T06:04:13;97160.35;;;10.16;30.96
74334;BME280;62753;40.394;-80.022;2023-11-19T06:06:38;97160.40;;;9.93;30.98
74334;BME280;62753;40.394;-80.022;2023-11-19T06:09:04;97158.36;;;9.92;31.05
74334;BME280;62753;40.394;-80.022;2023-11-19T06:11:29;97162.29;;;10.33;30.65
74334;BME280;62753;40.394;-80.022;2023-11-19T06:13:54;97159.24;;;11.35;29.13
74334;BME280;62753;40.394;-80.022;2023-11-19T06:16:19;97157.24;;;11.06;29.66
74334;BME280;62753;40.394;-80.022;2023-11-19T06:18:45;97154.58;;;9.97;31.09
74334;BME280;62753;40.394;-80.022;2023-11-19T06:21:10;97152.77;;;10.66;30.47
74334;BME280;62753;40.394;-80.022;2023-11-19T06:23:36;97147.14;;;10.34;30.86
74334;BME280;62753;40.394;-80.022;2023-11-19T06:26:01;97146.31;;;9.93;31.45
74334;BME280;62753;40.394;-80.022;2023-11-19T06:28:27;97141.70;;;9.73;31.78
74334;BME280;62753;40.394;-80.022;2023-11-19T06:30:52;97141.70;;;10.32;30.88
74334;BME280;62753;40.394;-80.022;2023-11-19T06:33:17;97138.99;;;9.41;31.72
74334;BME280;62753;40.394;-80.022;2023-11-19T06:35:43;97137.18;;;9.33;32.36
74334;BME280;62753;40.394;-80.022;2023-11-19T06:38:13;97133.62;;;9.78;31.96
74334;BME280;62753;40.394;-80.022;2023-11-19T06:40:34;97140.35;;;10.62;30.55
74334;BME280;62753;40.394;-80.022;2023-11-19T06:43:00;97134.60;;;9.84;31.45
74334;BME280;62753;40.394;-80.022;2023-11-19T06:45:25;97131.83;;;9.68;31.71
74334;BME280;62753;40.394;-80.022;2023-11-19T06:47:50;97131.63;;;9.11;32.45
74334;BME280;62753;40.394;-80.022;2023-11-19T06:50:16;97128.02;;;9.63;31.49
74334;BME280;62753;40.394;-80.022;2023-11-19T06:52:41;97128.71;;;10.20;31.13
74334;BME280;62753;40.394;-80.022;2023-11-19T06:55:08;97124.99;;;10.85;30.25
74334;BME280;62753;40.394;-80.022;2023-11-19T06:57:32;97123.43;;;10.13;31.26
74334;BME280;62753;40.394;-80.022;2023-11-19T06:59:57;97120.87;;;10.29;31.19
74334;BME280;62753;40.394;-80.022;2023-11-19T07:02:23;97122.14;;;9.84;31.22
74334;BME280;62753;40.394;-80.022;2023-11-19T07:04:48;97120.90;;;8.99;32.78
74334;BME280;62753;40.394;-80.022;2023-11-19T07:07:14;97121.66;;;9.97;30.65
74334;BME280;62753;40.394;-80.022;2023-11-19T07:09:39;97125.69;;;10.33;30.83
74334;BME280;62753;40.394;-80.022;2023-11-19T07:12:06;97117.43;;;10.78;30.49
74334;BME280;62753;40.394;-80.022;2023-11-19T07:14:31;97114.73;;;10.00;31.16
74334;BME280;62753;40.394;-80.022;2023-11-19T07:16:56;97112.92;;;9.88;31.16
74334;BME280;62753;40.394;-80.022;2023-11-19T07:19:22;97115.25;;;10.04;31.83
74334;BME280;62753;40.394;-80.022;2023-11-19T07:21:47;97120.82;;;9.57;32.11
74334;BME280;62753;40.394;-80.022;2023-11-19T07:24:13;97119.86;;;10.05;31.64
74334;BME280;62753;40.394;-80.022;2023-11-19T07:26:41;97125.25;;;10.26;32.00
74334;BME280;62753;40.394;-80.022;2023-11-19T07:29:04;97129.35;;;9.83;32.19
74334;BME280;62753;40.394;-80.022;2023-11-19T07:31:29;97128.74;;;10.03;31.60
74334;BME280;62753;40.394;-80.022;2023-11-19T07:33:54;97130.56;;;9.64;32.29
74334;BME280;62753;40.394;-80.022;2023-11-19T07:36:19;97134.93;;;8.93;33.37
74334;BME280;62753;40.394;-80.022;2023-11-19T07:38:46;97136.69;;;9.44;32.98
74334;BME280;62753;40.394;-80.022;2023-11-19T07:41:10;97140.42;;;9.77;31.91
74334;BME280;62753;40.394;-80.022;2023-11-19T07:43:35;97138.23;;;9.92;31.79
74334;BME280;62753;40.394;-80.022;2023-11-19T07:46:01;97139.18;;;9.80;31.76
74334;BME280;62753;40.394;-80.022;2023-11-19T07:48:26;97144.04;;;10.82;30.69
74334;BME280;62753;40.394;-80.022;2023-11-19T07:50:52;97145.35;;;9.58;32.38
74334;BME280;62753;40.394;-80.022;2023-11-19T07:53:17;97144.25;;;9.97;31.44
74334;BME280;62753;40.394;-80.022;2023-11-19T07:55:43;97146.66;;;9.08;32.45
74334;BME280;62753;40.394;-80.022;2023-11-19T07:58:10;97146.80;;;9.71;32.26
74334;BME280;62753;40.394;-80.022;2023-11-19T08:00:34;97146.31;;;9.56;32.30
74334;BME280;62753;40.394;-80.022;2023-11-19T08:02:59;97145.17;;;8.86;32.94
74334;BME280;62753;40.394;-80.022;2023-11-19T08:05:25;97144.89;;;10.16;31.91
74334;BME280;62753;40.394;-80.022;2023-11-19T08:07:50;97147.72;;;9.22;33.08
74334;BME280;62753;40.394;-80.022;2023-11-19T08:10:15;97146.89;;;9.28;33.01
74334;BME280;62753;40.394;-80.022;2023-11-19T08:12:41;97145.58;;;8.70;33.97
74334;BME280;62753;40.394;-80.022;2023-11-19T08:15:07;97146.47;;;9.17;33.73
74334;BME280;62753;40.394;-80.022;2023-11-19T08:17:32;97146.78;;;9.43;32.13
74334;BME280;62753;40.394;-80.022;2023-11-19T08:19:57;97145.94;;;10.05;31.99
74334;BME280;62753;40.394;-80.022;2023-11-19T08:22:23;97146.19;;;9.80;32.10
74334;BME280;62753;40.394;-80.022;2023-11-19T08:24:48;97146.17;;;9.65;32.55
74334;BME280;62753;40.394;-80.022;2023-11-19T08:27:14;97144.57;;;10.09;31.89
74334;BME280;62753;40.394;-80.022;2023-11-19T08:29:39;97144.77;;;9.59;31.98
74334;BME280;62753;40.394;-80.022;2023-11-19T08:32:06;97144.59;;;9.57;32.50
74334;BME280;62753;40.394;-80.022;2023-11-19T08:34:30;97149.92;;;10.26;31.15
74334;BME280;62753;40.394;-80.022;2023-11-19T08:36:56;97145.27;;;10.17;31.83
74334;BME280;62753;40.394;-80.022;2023-11-19T08:39:21;97141.20;;;9.59;31.58
74334;BME280;62753;40.394;-80.022;2023-11-19T08:41:46;97143.88;;;10.17;31.61
74334;BME280;62753;40.394;-80.022;2023-11-19T08:44:12;97144.12;;;9.28;32.66
74334;BME280;62753;40.394;-80.022;2023-11-19T08:46:37;97142.93;;;8.59;33.68
74334;BME280;62753;40.394;-80.022;2023-11-19T08:49:03;97140.06;;;8.80;33.50
74334;BME280;62753;40.394;-80.022;2023-11-19T08:51:28;97137.57;;;9.20;33.17
74334;BME280;62753;40.394;-80.022;2023-11-19T08:53:54;97136.68;;;9.13;33.15
74334;BME280;62753;40.394;-80.022;2023-11-19T08:56:19;97137.02;;;9.62;32.30
74334;BME280;62753;40.394;-80.022;2023-11-19T08:58:45;97136.54;;;9.38;32.95
74334;BME280;62753;40.394;-80.022;2023-11-19T09:01:11;97140.70;;;9.46;33.17
74334;BME280;62753;40.394;-80.022;2023-11-19T09:03:36;97142.18;;;9.07;33.65
74334;BME280;62753;40.394;-80.022;2023-11-19T09:06:01;97142.95;;;9.09;33.23
74334;BME280;62753;40.394;-80.022;2023-11-19T09:08:26;97143.52;;;9.06;33.42
74334;BME280;62753;40.394;-80.022;2023-11-19T09:10:52;97142.39;;;8.46;34.17
74334;BME280;62753;40.394;-80.022;2023-11-19T09:13:18;97136.73;;;9.12;33.31
74334;BME280;62753;40.394;-80.022;2023-11-19T09:15:43;97137.25;;;8.86;34.08
74334;BME280;62753;40.394;-80.022;2023-11-19T09:18:08;97141.74;;;8.79;34.30
74334;BME280;62753;40.394;-80.022;2023-11-19T09:20:34;97135.59;;;8.99;33.68
74334;BME280;62753;40.394;-80.022;2023-11-19T09:22:59;97138.22;;;9.09;33.84
74334;BME280;62753;40.394;-80.022;2023-11-19T09:25:25;97137.52;;;9.64;33.04
74334;BME280;62753;40.394;-80.022;2023-11-19T09:27:51;97140.59;;;9.61;32.70
74334;BME280;62753;40.394;-80.022;2023-11-19T09:30:16;97143.73;;;9.88;32.20
74334;BME280;62753;40.394;-80.022;2023-11-19T09:32:41;97146.61;;;9.27;33.00
74334;BME280;62753;40.394;-80.022;2023-11-19T09:35:08;97153.73;;;9.33;33.56
74334;BME280;62753;40.394;-80.022;2023-11-19T09:37:32;97153.85;;;9.26;33.09
74334;BME280;62753;40.394;-80.022;2023-11-19T09:39:58;97151.72;;;9.90;32.07
74334;BME280;62753;40.394;-80.022;2023-11-19T09:42:24;97152.39;;;9.49;32.67
74334;BME280;62753;40.394;-80.022;2023-11-19T09:44:49;97156.48;;;9.52;32.90
74334;BME280;62753;40.394;-80.022;2023-11-19T09:47:14;97161.31;;;9.24;32.88
74334;BME280;62753;40.394;-80.022;2023-11-19T09:49:40;97162.27;;;9.27;33.13
74334;BME280;62753;40.394;-80.022;2023-11-19T09:52:05;97164.72;;;9.64;32.45
74334;BME280;62753;40.394;-80.022;2023-11-19T09:54:30;97164.48;;;9.93;31.70
74334;BME280;62753;40.394;-80.022;2023-11-19T09:56:57;97165.77;;;9.95;31.81
74334;BME280;62753;40.394;-80.022;2023-11-19T09:59:21;97168.03;;;9.34;32.43
74334;BME280;62753;40.394;-80.022;2023-11-19T10:01:47;97169.72;;;9.05;32.92
74334;BME280;62753;40.394;-80.022;2023-11-19T10:04:15;97170.94;;;8.92;33.25
74334;BME280;62753;40.394;-80.022;2023-11-19T10:06:37;97172.62;;;9.16;33.20
74334;BME280;62753;40.394;-80.022;2023-11-19T10:09:03;97170.68;;;9.73;32.17
74334;BME280;62753;40.394;-80.022;2023-11-19T10:11:28;97168.34;;;10.11;31.43
74334;BME280;62753;40.394;-80.022;2023-11-19T10:13:54;97166.96;;;10.00;31.72
74334;BME280;62753;40.394;-80.022;2023-11-19T10:16:20;97168.30;;;9.26;32.74
74334;BME280;62753;40.394;-80.022;2023-11-19T10:18:46;97169.72;;;9.38;32.81
74334;BME280;62753;40.394;-80.022;2023-11-19T10:21:12;97173.11;;;9.26;33.10
74334;BME280;62753;40.394;-80.022;2023-11-19T10:23:47;97174.09;;;9.30;32.88
74334;BME280;62753;40.394;-80.022;2023-11-19T10:26:03;97175.28;;;8.81;33.05
74334;BME280;62753;40.394;-80.022;2023-11-19T10:28:27;97177.17;;;8.94;33.23
74334;BME280;62753;40.394;-80.022;2023-11-19T10:30:56;97179.48;;;9.27;33.03
74334;BME280;62753;40.394;-80.022;2023-11-19T10:33:18;97181.51;;;8.17;34.95
74334;BME280;62753;40.394;-80.022;2023-11-19T10:35:52;97183.07;;;8.25;34.73
74334;BME280;62753;40.394;-80.022;2023-11-19T10:38:14;97179.47;;;8.22;34.46
74334;BME280;62753;40.394;-80.022;2023-11-19T10:40:39;97178.18;;;8.51;34.60
74334;BME280;62753;40.394;-80.022;2023-11-19T10:43:02;97181.13;;;8.44;34.67
74334;BME280;62753;40.394;-80.022;2023-11-19T10:45:25;97183.60;;;8.17;35.02
74334;BME280;62753;40.394;-80.022;2023-11-19T10:47:51;97188.00;;;8.32;35.18
74334;BME280;62753;40.394;-80.022;2023-11-19T10:50:15;97189.92;;;8.93;34.26
74334;BME280;62753;40.394;-80.022;2023-11-19T10:52:41;97191.20;;;8.40;34.21
74334;BME280;62753;40.394;-80.022;2023-11-19T10:55:08;97190.77;;;7.69;35.22
74334;BME280;62753;40.394;-80.022;2023-11-19T10:57:33;97189.33;;;8.15;35.86
74334;BME280;62753;40.394;-80.022;2023-11-19T11:00:02;97189.40;;;8.16;34.77
74334;BME280;62753;40.394;-80.022;2023-11-19T11:02:24;97188.89;;;8.88;33.93
74334;BME280;62753;40.394;-80.022;2023-11-19T11:04:48;97188.41;;;8.24;34.78
74334;BME280;62753;40.394;-80.022;2023-11-19T11:07:14;97189.66;;;8.57;34.66
74334;BME280;62753;40.394;-80.022;2023-11-19T11:09:39;97189.90;;;8.11;35.23
74334;BME280;62753;40.394;-80.022;2023-11-19T11:12:06;97184.96;;;8.55;34.23
74334;BME280;62753;40.394;-80.022;2023-11-19T11:14:29;97183.45;;;8.58;34.36
74334;BME280;62753;40.394;-80.022;2023-11-19T11:16:56;97179.34;;;8.58;33.88
74334;BME280;62753;40.394;-80.022;2023-11-19T11:19:20;97178.31;;;9.04;33.65
74334;BME280;62753;40.394;-80.022;2023-11-19T11:21:49;97182.75;;;8.43;34.88
74334;BME280;62753;40.394;-80.022;2023-11-19T11:24:28;97185.95;;;8.80;34.00
74334;BME280;62753;40.394;-80.022;2023-11-19T11:26:52;97181.31;;;7.85;35.12
74334;BME280;62753;40.394;-80.022;2023-11-19T11:29:04;97183.30;;;8.07;34.92
74334;BME280;62753;40.394;-80.022;2023-11-19T11:31:36;97188.54;;;9.09;33.93
74334;BME280;62753;40.394;-80.022;2023-11-19T11:34:05;97192.15;;;8.96;33.65
74334;BME280;62753;40.394;-80.022;2023-11-19T11:36:22;97197.81;;;7.95;34.99
74334;BME280;62753;40.394;-80.022;2023-11-19T11:38:43;97201.23;;;9.15;33.66
74334;BME280;62753;40.394;-80.022;2023-11-19T11:41:18;97196.46;;;8.76;34.08
74334;BME280;62753;40.394;-80.022;2023-11-19T11:43:43;97198.10;;;9.01;34.03
74334;BME280;62753;40.394;-80.022;2023-11-19T11:45:58;97204.52;;;9.29;33.68
74334;BME280;62753;40.394;-80.022;2023-11-19T11:48:25;97203.23;;;9.00;34.14
74334;BME280;62753;40.394;-80.022;2023-11-19T11:50:54;97200.01;;;9.32;33.05
74334;BME280;62753;40.394;-80.022;2023-11-19T11:53:16;97202.23;;;8.74;33.89
74334;BME280;62753;40.394;-80.022;2023-11-19T11:55:52;97200.08;;;9.37;32.92
74334;BME280;62753;40.394;-80.022;2023-11-19T11:58:05;97206.16;;;9.07;33.63
74334;BME280;62753;40.394;-80.022;2023-11-19T12:00:31;97213.53;;;9.31;33.26
74334;BME280;62753;40.394;-80.022;2023-11-19T12:02:56;97218.94;;;7.51;35.21
74334;BME280;62753;40.394;-80.022;2023-11-19T12:05:22;97222.19;;;8.63;34.40
74334;BME280;62753;40.394;-80.022;2023-11-19T12:07:54;97223.92;;;9.05;33.87
74334;BME280;62753;40.394;-80.022;2023-11-19T12:10:12;97228.46;;;9.15;32.73
74334;BME280;62753;40.394;-80.022;2023-11-19T12:12:39;97234.21;;;8.82;33.72
74334;BME280;62753;40.394;-80.022;2023-11-19T12:15:06;97236.29;;;8.23;34.45
74334;BME280;62753;40.394;-80.022;2023-11-19T12:17:42;97238.99;;;8.58;34.08
74334;BME280;62753;40.394;-80.022;2023-11-19T12:19:55;97242.90;;;9.03;33.16
74334;BME280;62753;40.394;-80.022;2023-11-19T12:22:20;97248.09;;;9.40;33.29
74334;BME280;62753;40.394;-80.022;2023-11-19T12:24:46;97249.12;;;8.71;33.73
74334;BME280;62753;40.394;-80.022;2023-11-19T12:27:12;97252.12;;;8.17;34.93
74334;BME280;62753;40.394;-80.022;2023-11-19T12:29:41;97255.45;;;8.89;34.32
74334;BME280;62753;40.394;-80.022;2023-11-19T12:32:02;97263.74;;;7.85;35.69
74334;BME280;62753;40.394;-80.022;2023-11-19T12:34:27;97267.01;;;8.25;35.51